Time;durP1;ratioP1;P1;durP2;ratioP2;P2;SDS_P1;SDS_P2;PMS_P1;PMS_P2;Temp;Humidity;BMP_temperature;BMP_pressure;BME280_temperature;BME280_humidity;BME280_pressure;Samples;Min_cycle;Max_cycle;Signal;HPM_P1;HPM_P2
2022/07/04 00:00:09;;;;;;;1.55;1.25;;;13.00;99.90;;;;;;5019419;28;20045;-62
2022/07/04 00:02:35;;;;;;;1.67;1.15;;;13.20;99.90;;;;;;5021094;28;20046;-63
2022/07/04 00:05:01;;;;;;;5.53;1.90;;;13.00;99.90;;;;;;4992563;28;20052;-63
2022/07/04 00:07:26;;;;;;;2.00;1.45;;;13.10;99.90;;;;;;4993355;28;20117;-62
2022/07/04 00:09:52;;;;;;;4.15;2.42;;;13.30;99.90;;;;;;4993713;28;20057;-63
2022/07/04 00:12:18;;;;;;;4.63;2.80;;;13.10;99.90;;;;;;5021172;28;20034;-63
2022/07/04 00:14:43;;;;;;;3.90;3.50;;;13.20;99.90;;;;;;4993849;28;20035;-63
2022/07/04 00:17:09;;;;;;;3.45;2.33;;;13.10;99.90;;;;;;5005624;28;20165;-62
2022/07/04 00:19:35;;;;;;;1.25;1.15;;;13.20;99.90;;;;;;4992558;28;20041;-63
2022/07/04 00:22:01;;;;;;;2.45;1.73;;;12.90;99.90;;;;;;4993443;28;20042;-63
2022/07/04 00:24:26;;;;;;;2.65;1.52;;;12.80;99.90;;;;;;4992017;28;20070;-62
2022/07/04 00:26:52;;;;;;;5.00;1.27;;;12.70;99.90;;;;;;4986840;28;20120;-62
2022/07/04 00:29:18;;;;;;;1.85;1.65;;;12.60;99.90;;;;;;5011586;28;20124;-62
2022/07/04 00:31:43;;;;;;;8.27;2.00;;;12.60;99.90;;;;;;5011381;28;20408;-62
2022/07/04 00:34:09;;;;;;;4.40;2.30;;;12.50;99.90;;;;;;5011940;28;20113;-62
2022/07/04 00:36:35;;;;;;;4.75;2.28;;;12.50;99.90;;;;;;5012348;28;20181;-63
2022/07/04 00:39:00;;;;;;;6.78;3.22;;;12.70;99.90;;;;;;5012439;28;20056;-62
2022/07/04 00:41:26;;;;;;;6.28;3.38;;;12.60;99.90;;;;;;5011452;28;20042;-62
2022/07/04 00:44:09;;;;;;;4.65;3.15;;;12.70;99.90;;;;;;5013168;28;20038;-62
2022/07/04 00:46:35;;;;;;;5.53;2.97;;;12.50;99.90;;;;;;5011391;28;20029;-62
2022/07/04 00:49:03;;;;;;;7.00;4.15;;;12.80;99.90;;;;;;5016824;28;20180;-62
2022/07/04 00:51:28;;;;;;;8.23;5.22;;;12.70;99.90;;;;;;5030662;28;20068;-62
2022/07/04 00:53:55;;;;;;;5.20;4.25;;;12.80;99.90;;;;;;4979759;28;20126;-62
2022/07/04 00:56:21;;;;;;;4.38;3.72;;;12.70;99.90;;;;;;5011873;28;20491;-62
2022/07/04 00:58:47;;;;;;;5.45;4.43;;;13.00;99.90;;;;;;5000273;28;20444;-62
2022/07/04 01:01:13;;;;;;;5.35;4.60;;;12.80;99.90;;;;;;5008228;28;20030;-62
2022/07/04 01:03:39;;;;;;;6.53;4.75;;;12.90;99.90;;;;;;5019507;28;20049;-62
2022/07/04 01:06:10;;;;;;;5.03;4.53;;;12.80;99.90;;;;;;5019984;28;20039;-62
2022/07/04 01:08:39;;;;;;;5.97;4.93;;;13.00;99.90;;;;;;4993104;28;20047;-62
2022/07/04 01:11:05;;;;;;;5.05;4.40;;;13.00;99.90;;;;;;5024621;28;20065;-62
2022/07/04 01:13:30;;;;;;;7.10;4.90;;;12.90;99.90;;;;;;5027664;28;20042;-62
2022/07/04 01:15:56;;;;;;;3.30;2.97;;;12.90;99.90;;;;;;5001720;28;20038;-62
2022/07/04 01:18:22;;;;;;;3.58;3.00;;;12.90;99.90;;;;;;5013782;28;20113;-62
2022/07/04 01:20:47;;;;;;;2.58;2.38;;;12.90;99.90;;;;;;5020846;28;20029;-62
2022/07/04 01:23:13;;;;;;;2.85;2.58;;;12.80;99.90;;;;;;4991771;28;20043;-62
2022/07/04 01:25:39;;;;;;;4.20;2.97;;;12.90;99.90;;;;;;4988699;28;20042;-63
2022/07/04 01:28:06;;;;;;;4.53;3.85;;;13.00;99.90;;;;;;4992063;28;20046;-64
2022/07/04 01:30:32;;;;;;;4.47;3.38;;;12.80;99.90;;;;;;4997525;28;20061;-63
2022/07/04 01:32:58;;;;;;;2.40;2.17;;;12.90;99.90;;;;;;5027181;28;20514;-63
2022/07/04 01:35:24;;;;;;;9.95;3.35;;;12.80;99.90;;;;;;5012188;28;20134;-62
2022/07/04 01:37:50;;;;;;;4.07;2.50;;;12.70;99.90;;;;;;5012391;28;20038;-63
2022/07/04 01:40:16;;;;;;;3.83;3.15;;;12.90;99.90;;;;;;5011998;28;20081;-63
2022/07/04 01:42:42;;;;;;;3.70;2.33;;;12.80;99.90;;;;;;5003105;28;20093;-63
2022/07/04 01:45:09;;;;;;;3.45;2.60;;;12.70;99.90;;;;;;4992812;28;20485;-62
2022/07/04 01:47:36;;;;;;;2.83;2.53;;;12.70;99.90;;;;;;5015766;28;20054;-63
2022/07/04 01:50:02;;;;;;;3.45;2.53;;;12.70;99.90;;;;;;5014342;28;20046;-63
2022/07/04 01:52:28;;;;;;;4.93;3.05;;;12.60;99.90;;;;;;5004933;28;20069;-63
2022/07/04 01:54:54;;;;;;;2.72;1.90;;;12.40;99.90;;;;;;5014760;28;20089;-62
2022/07/04 01:57:19;;;;;;;3.08;2.10;;;12.50;99.90;;;;;;4999726;28;20042;-63
2022/07/04 02:02:29;;;;;;;3.47;2.17;;;12.40;99.90;;;;;;4994532;28;20054;-62
2022/07/04 02:04:54;;;;;;;4.53;2.10;;;12.30;99.90;;;;;;4987231;28;20124;-62
2022/07/04 02:07:20;;;;;;;7.20;1.95;;;12.20;99.90;;;;;;5013656;28;20041;-63
2022/07/04 02:09:46;;;;;;;3.75;2.30;;;12.10;99.90;;;;;;4995881;28;20065;-63
2022/07/04 02:14:55;;;;;;;3.25;2.50;;;12.00;99.90;;;;;;4994629;28;20046;-63
2022/07/04 02:17:21;;;;;;;4.53;2.72;;;12.10;99.90;;;;;;4994376;28;20477;-63
2022/07/04 02:19:47;;;;;;;3.45;3.10;;;12.10;99.90;;;;;;4995733;28;20096;-63
2022/07/04 02:22:14;;;;;;;2.97;2.60;;;12.30;99.90;;;;;;5017331;28;20041;-62
2022/07/04 02:24:40;;;;;;;5.75;3.00;;;12.10;99.90;;;;;;5033358;28;20030;-63
2022/07/04 02:27:06;;;;;;;3.17;1.92;;;12.10;99.90;;;;;;5014749;28;20061;-63
2022/07/04 02:29:32;;;;;;;3.58;2.10;;;11.90;99.90;;;;;;5007787;28;20125;-63
2022/07/04 02:31:58;;;;;;;5.25;2.20;;;12.00;99.90;;;;;;4994573;28;20046;-63
2022/07/04 02:34:23;;;;;;;3.95;2.25;;;12.10;99.90;;;;;;4994352;28;20042;-63
2022/07/04 02:36:49;;;;;;;3.22;1.90;;;12.00;99.90;;;;;;4995435;28;20377;-63
2022/07/04 02:39:15;;;;;;;3.58;2.10;;;11.80;99.90;;;;;;4997037;28;20065;-65
2022/07/04 02:41:40;;;;;;;2.63;1.77;;;11.90;99.90;;;;;;4998928;28;20184;-63
2022/07/04 02:44:06;;;;;;;2.13;1.85;;;11.80;99.90;;;;;;4993910;28;20485;-63
2022/07/04 02:46:32;;;;;;;3.10;2.47;;;11.90;99.90;;;;;;5006294;28;20048;-65
2022/07/04 02:48:59;;;;;;;3.50;2.47;;;11.70;99.90;;;;;;4994040;28;20399;-63
2022/07/04 02:51:25;;;;;;;3.90;2.45;;;;;;;;;;5019253;28;20059;-62
2022/07/04 02:53:50;;;;;;;2.72;2.40;;;11.60;99.90;;;;;;4998237;28;20477;-63
2022/07/04 02:56:16;;;;;;;3.03;2.20;;;11.80;99.90;;;;;;5003341;28;20049;-63
2022/07/04 02:58:41;;;;;;;3.05;1.77;;;11.60;99.90;;;;;;4996694;28;20065;-63
2022/07/04 03:01:07;;;;;;;3.40;2.30;;;11.80;99.90;;;;;;4993564;28;20135;-63
2022/07/04 03:03:33;;;;;;;4.13;2.58;;;11.90;99.90;;;;;;4995054;28;20042;-63
2022/07/04 03:05:58;;;;;;;2.45;2.08;;;11.80;99.90;;;;;;4993487;28;20544;-63
2022/07/04 03:08:24;;;;;;;3.85;1.88;;;11.70;99.90;;;;;;5008683;28;20041;-63
2022/07/04 03:10:53;;;;;;;4.72;2.10;;;11.80;99.90;;;;;;4998998;28;20041;-62
2022/07/04 03:13:19;;;;;;;3.03;2.00;;;11.80;99.90;;;;;;5003962;28;20078;-63
2022/07/04 03:15:45;;;;;;;3.10;2.70;;;11.70;99.90;;;;;;5002358;28;20038;-63
2022/07/04 03:18:11;;;;;;;3.08;2.30;;;11.80;99.90;;;;;;4994579;28;20102;-63
2022/07/04 03:20:36;;;;;;;3.33;2.40;;;11.60;99.90;;;;;;5022401;28;20045;-63
2022/07/04 03:23:02;;;;;;;4.78;2.30;;;;;;;;;;4993096;28;20493;-63
2022/07/04 03:25:29;;;;;;;3.75;2.17;;;11.80;99.90;;;;;;4992983;28;20124;-63
2022/07/04 03:27:54;;;;;;;2.20;1.23;;;11.90;99.90;;;;;;4999847;28;20041;-63
2022/07/04 03:30:20;;;;;;;2.92;2.13;;;11.60;99.90;;;;;;5022981;28;20095;-63
2022/07/04 03:32:46;;;;;;;4.15;2.38;;;;;;;;;;4998812;28;20116;-63
2022/07/04 03:35:11;;;;;;;2.72;2.10;;;11.70;99.90;;;;;;5033384;28;20041;-63
2022/07/04 03:37:37;;;;;;;3.30;2.22;;;11.80;99.90;;;;;;5004042;28;20046;-63
2022/07/04 03:40:03;;;;;;;5.82;3.08;;;11.70;99.90;;;;;;5006323;28;20062;-63
2022/07/04 03:42:29;;;;;;;3.53;2.00;;;11.60;99.90;;;;;;5011544;28;20126;-63
2022/07/04 03:44:54;;;;;;;4.03;2.92;;;11.80;99.90;;;;;;5031927;28;20173;-63
2022/07/04 03:47:20;;;;;;;8.02;5.00;;;11.90;99.90;;;;;;5017375;28;20068;-63
2022/07/04 03:49:46;;;;;;;6.70;5.53;;;11.70;99.90;;;;;;5007105;28;20050;-63
2022/07/04 03:52:11;;;;;;;10.30;7.18;;;11.90;99.90;;;;;;4992356;28;20039;-63
2022/07/04 03:54:37;;;;;;;10.25;7.03;;;12.10;99.90;;;;;;4992431;28;20039;-62
2022/07/04 03:57:03;;;;;;;9.68;6.65;;;12.00;99.90;;;;;;4992449;28;20095;-63
2022/07/04 03:59:28;;;;;;;11.57;7.65;;;;;;;;;;4992489;28;20038;-63
2022/07/04 04:01:54;;;;;;;10.73;7.22;;;12.20;99.90;;;;;;4992631;28;20050;-63
2022/07/04 04:07:04;;;;;;;10.23;7.18;;;12.30;99.90;;;;;;5001504;28;20050;-63
2022/07/04 04:09:30;;;;;;;12.52;7.57;;;12.30;99.90;;;;;;4992105;28;20390;-64
2022/07/04 04:11:55;;;;;;;10.00;7.53;;;12.40;99.90;;;;;;4993129;28;20053;-63
2022/07/04 04:14:21;;;;;;;10.90;7.03;;;;;;;;;;5021254;28;20038;-62
2022/07/04 04:16:47;;;;;;;11.63;8.07;;;12.60;99.90;;;;;;4992138;28;20378;-62
2022/07/04 04:19:12;;;;;;;11.55;8.70;;;12.50;99.90;;;;;;4995495;28;20084;-63
2022/07/04 04:21:38;;;;;;;13.82;7.95;;;12.60;99.90;;;;;;5012459;28;20484;-62
2022/07/04 04:24:04;;;;;;;11.35;8.27;;;12.60;99.90;;;;;;5011310;28;20385;-62
2022/07/04 04:26:30;;;;;;;10.48;7.70;;;13.20;99.90;;;;;;5012647;28;20038;-62
2022/07/04 04:28:56;;;;;;;15.60;8.52;;;12.90;99.90;;;;;;5012533;28;20544;-62
2022/07/04 04:31:22;;;;;;;12.65;8.60;;;;;;;;;;5007616;28;20042;-63
2022/07/04 04:33:47;;;;;;;12.70;8.80;;;13.00;99.90;;;;;;5010293;28;20120;-62
2022/07/04 04:36:13;;;;;;;13.40;9.23;;;13.10;99.90;;;;;;5004198;28;20493;-63
2022/07/04 04:38:39;;;;;;;9.23;8.00;;;;;;;;;;5005283;28;20527;-63
2022/07/04 04:41:05;;;;;;;15.73;9.40;;;13.20;99.90;;;;;;4995452;28;20054;-63
2022/07/04 04:43:31;;;;;;;11.25;9.93;;;;;;;;;;5002303;28;20042;-64
2022/07/04 04:45:57;;;;;;;14.70;8.52;;;;;;;;;;5003884;28;20049;-63
2022/07/04 04:48:22;;;;;;;13.35;8.60;;;13.40;99.90;;;;;;5005583;28;20049;-63
2022/07/04 04:50:48;;;;;;;13.32;8.73;;;13.50;99.90;;;;;;5005185;28;20034;-62
2022/07/04 04:53:14;;;;;;;12.40;8.82;;;;;;;;;;5005528;28;20054;-62
2022/07/04 04:55:40;;;;;;;14.88;8.70;;;;;;;;;;5005616;28;20113;-63
2022/07/04 04:58:06;;;;;;;13.85;8.35;;;;;;;;;;5004233;28;20042;-63
2022/07/04 05:00:32;;;;;;;15.30;8.38;;;13.80;99.90;;;;;;5004110;28;20084;-63
2022/07/04 05:02:58;;;;;;;12.93;7.60;;;14.00;99.90;;;;;;5005645;28;20512;-63
2022/07/04 05:05:23;;;;;;;14.98;7.75;;;14.30;99.90;;;;;;5004664;28;20049;-63
2022/07/04 05:07:49;;;;;;;10.93;7.65;;;;;;;;;;5004889;28;20475;-63
2022/07/04 05:10:15;;;;;;;11.23;6.97;;;14.90;99.90;;;;;;5002456;28;20128;-63
2022/07/04 05:12:43;;;;;;;9.52;5.97;;;15.30;99.90;;;;;;5006909;28;20129;-63
2022/07/04 05:15:09;;;;;;;8.95;5.78;;;15.70;99.90;;;;;;5007858;28;20108;-63
2022/07/04 05:17:35;;;;;;;10.65;5.18;;;15.90;99.90;;;;;;5008690;28;20488;-63
2022/07/04 05:20:01;;;;;;;9.32;5.40;;;15.90;99.90;;;;;;5007105;28;20041;-63
2022/07/04 05:22:27;;;;;;;8.35;5.70;;;16.20;99.90;;;;;;5011552;28;20096;-63
2022/07/04 05:24:52;;;;;;;6.63;4.90;;;16.20;99.90;;;;;;5012721;28;20069;-63
2022/07/04 05:27:18;;;;;;;11.00;5.22;;;16.10;99.90;;;;;;5011608;28;20073;-63
2022/07/04 05:29:44;;;;;;;10.98;5.03;;;15.80;99.90;;;;;;5012346;28;20420;-63
2022/07/04 05:32:09;;;;;;;8.00;5.25;;;15.70;99.90;;;;;;5009918;28;20416;-63
2022/07/04 05:34:35;;;;;;;6.45;5.03;;;15.60;99.90;;;;;;5013375;28;20084;-63
2022/07/04 05:37:02;;;;;;;11.48;5.22;;;15.80;99.90;;;;;;5014192;28;20095;-64
2022/07/04 05:39:28;;;;;;;7.05;4.85;;;16.00;99.90;;;;;;5013004;28;20054;-62
2022/07/04 05:41:54;;;;;;;8.57;4.60;;;15.80;99.90;;;;;;5014001;28;20041;-63
2022/07/04 05:44:19;;;;;;;9.00;5.05;;;15.90;99.90;;;;;;5010602;28;20103;-63
2022/07/04 05:46:45;;;;;;;8.13;4.85;;;16.30;99.90;;;;;;5009382;28;20049;-63
2022/07/04 05:49:10;;;;;;;7.65;4.95;;;16.30;99.90;;;;;;5007185;28;20052;-63
2022/07/04 05:51:36;;;;;;;7.70;4.95;;;16.40;99.90;;;;;;5011506;28;20073;-63
2022/07/04 05:54:02;;;;;;;10.48;4.88;;;16.20;99.90;;;;;;5015557;28;20033;-63
2022/07/04 05:56:27;;;;;;;8.15;4.85;;;16.80;99.90;;;;;;5015054;28;20030;-63
2022/07/04 05:58:53;;;;;;;10.52;4.90;;;16.70;99.90;;;;;;5015511;28;20116;-63
2022/07/04 06:01:18;;;;;;;7.07;4.85;;;17.00;99.90;;;;;;5008467;28;20251;-63
2022/07/04 06:03:44;;;;;;;6.75;3.65;;;17.20;99.90;;;;;;5009956;28;20508;-63
2022/07/04 06:06:10;;;;;;;9.20;4.40;;;17.40;99.90;;;;;;4996920;28;20053;-63
2022/07/04 06:08:35;;;;;;;9.27;4.68;;;17.80;99.90;;;;;;4995200;28;20282;-64
2022/07/04 06:11:03;;;;;;;7.72;4.07;;;18.00;99.90;;;;;;5011370;28;20077;-63
2022/07/04 06:13:28;;;;;;;8.25;4.88;;;18.00;99.90;;;;;;4995208;28;20141;-63
2022/07/04 06:15:54;;;;;;;14.48;5.20;;;18.20;99.90;;;;;;4995795;28;20042;-63
2022/07/04 06:18:20;;;;;;;7.90;4.85;;;18.00;99.90;;;;;;4995946;28;20050;-63
2022/07/04 06:20:45;;;;;;;12.13;4.88;;;17.90;99.90;;;;;;4994689;28;20049;-63
2022/07/04 06:23:11;;;;;;;13.40;4.88;;;18.00;99.90;;;;;;4996002;28;21088;-63
2022/07/04 06:25:37;;;;;;;7.97;5.07;;;18.00;99.90;;;;;;4997908;28;20081;-63
2022/07/04 06:28:02;;;;;;;7.80;5.28;;;18.20;99.90;;;;;;4997454;28;20554;-63
2022/07/04 06:30:28;;;;;;;9.65;4.97;;;18.40;99.90;;;;;;4996813;28;20072;-63
2022/07/04 06:32:56;;;;;;;8.13;5.07;;;18.60;99.90;;;;;;4998141;28;20056;-63
2022/07/04 06:35:47;;;;;;;11.05;4.82;;;18.60;99.90;;;;;;4995054;28;20508;-63
2022/07/04 06:38:16;;;;;;;8.55;4.57;;;18.50;99.90;;;;;;4994900;28;20041;-63
2022/07/04 06:40:42;;;;;;;10.23;5.20;;;18.40;99.90;;;;;;4993842;28;20137;-63
2022/07/04 06:43:08;;;;;;;9.88;4.97;;;18.40;99.90;;;;;;4993760;28;20049;-63
2022/07/04 06:45:34;;;;;;;7.22;4.47;;;18.00;99.90;;;;;;4992478;28;20045;-63
2022/07/04 06:48:04;;;;;;;12.80;5.32;;;18.20;99.90;;;;;;4994099;28;20041;-63
2022/07/04 06:50:32;;;;;;;17.55;6.03;;;18.00;99.90;;;;;;4993909;28;20052;-63
2022/07/04 06:52:59;;;;;;;14.93;5.78;;;18.20;99.90;;;;;;4992074;28;20045;-63
2022/07/04 06:55:25;;;;;;;10.13;5.30;;;18.00;99.90;;;;;;4994147;28;20069;-63
2022/07/04 06:57:50;;;;;;;10.40;5.65;;;17.80;99.90;;;;;;4995813;28;20117;-63
2022/07/04 07:00:16;;;;;;;17.60;6.28;;;17.70;99.90;;;;;;4994720;28;20041;-63
2022/07/04 07:02:42;;;;;;;8.15;5.55;;;17.90;99.90;;;;;;4995560;28;20073;-63
2022/07/04 07:05:08;;;;;;;10.80;5.85;;;17.90;99.90;;;;;;4993420;28;20046;-63
2022/07/04 07:07:33;;;;;;;14.00;6.63;;;17.70;99.90;;;;;;4995922;28;20498;-63
2022/07/04 07:10:01;;;;;;;13.75;6.07;;;17.70;99.90;;;;;;4994215;28;20057;-63
2022/07/04 07:12:26;;;;;;;10.15;6.10;;;17.90;99.90;;;;;;4992368;28;20065;-63
2022/07/04 07:14:52;;;;;;;12.40;4.97;;;17.80;99.90;;;;;;4991610;28;20049;-63
2022/07/04 07:17:18;;;;;;;15.38;5.35;;;17.80;99.90;;;;;;4991153;28;20195;-62
2022/07/04 07:19:44;;;;;;;14.43;5.63;;;17.90;99.90;;;;;;4990610;28;20496;-62
2022/07/04 07:22:12;;;;;;;11.55;6.63;;;18.30;99.90;;;;;;4990255;28;20120;-62
2022/07/04 07:24:37;;;;;;;10.00;5.25;;;18.00;99.90;;;;;;4989530;28;20128;-62
2022/07/04 07:27:04;;;;;;;11.80;5.50;;;18.00;99.90;;;;;;4988254;28;20045;-62
2022/07/04 07:29:29;;;;;;;9.63;5.65;;;18.10;99.90;;;;;;4990180;28;20146;-62
2022/07/04 07:31:55;;;;;;;13.82;6.63;;;18.30;99.90;;;;;;4990368;28;20042;-62
2022/07/04 07:34:21;;;;;;;12.95;5.68;;;18.40;99.90;;;;;;4991637;28;20048;-62
2022/07/04 07:36:46;;;;;;;11.25;4.50;;;18.20;99.90;;;;;;4990491;28;20029;-63
2022/07/04 07:39:12;;;;;;;12.88;4.90;;;18.30;99.90;;;;;;4992336;28;20539;-62
2022/07/04 07:41:38;;;;;;;12.25;5.30;;;18.10;99.90;;;;;;4989311;28;20045;-63
2022/07/04 07:44:03;;;;;;;7.47;3.60;;;18.30;99.90;;;;;;4991456;28;20056;-62
2022/07/04 07:46:29;;;;;;;12.82;3.90;;;16.20;99.90;;;;;;4989395;28;20746;-62
2022/07/04 07:48:54;;;;;;;8.27;4.00;;;18.70;99.90;;;;;;4990906;28;20497;-63
2022/07/04 07:51:20;;;;;;;9.68;4.45;;;18.40;99.90;;;;;;4992115;28;20042;-62
2022/07/04 07:53:46;;;;;;;12.32;4.13;;;18.50;99.90;;;;;;4992835;28;20052;-61
2022/07/04 07:56:11;;;;;;;12.38;4.10;;;18.50;99.90;;;;;;4982398;28;20048;-62
2022/07/04 07:58:37;;;;;;;14.57;3.65;;;18.40;99.90;;;;;;4989639;28;20068;-61
2022/07/04 08:01:02;;;;;;;7.07;3.00;;;18.90;99.90;;;;;;4987095;28;20041;-61
2022/07/04 08:06:13;;;;;;;9.82;2.90;;;18.70;99.90;;;;;;4990168;28;20524;-62
2022/07/04 08:08:40;;;;;;;9.48;2.58;;;18.60;99.90;;;;;;4990524;28;20041;-62
2022/07/04 08:11:06;;;;;;;8.90;3.10;;;18.70;99.90;;;;;;4989866;28;20069;-61
2022/07/04 08:13:32;;;;;;;7.85;2.67;;;18.90;99.90;;;;;;4988875;28;20531;-61
2022/07/04 08:15:58;;;;;;;7.20;2.70;;;18.90;99.90;;;;;;4986641;28;20733;-62
2022/07/04 08:18:23;;;;;;;11.98;3.53;;;19.00;99.90;;;;;;4990357;28;20036;-61
2022/07/04 08:20:50;;;;;;;6.70;1.95;;;19.00;99.90;;;;;;4989016;28;21646;-62
2022/07/04 08:23:16;;;;;;;6.72;2.05;;;18.90;99.90;;;;;;4988450;28;20756;-61
2022/07/04 08:25:41;;;;;;;10.57;2.00;;;18.90;99.90;;;;;;5006475;28;20042;-61
2022/07/04 08:28:07;;;;;;;6.90;2.20;;;19.00;99.90;;;;;;4991581;28;20053;-61
2022/07/04 08:30:33;;;;;;;7.28;1.77;;;19.10;99.90;;;;;;4989228;28;20348;-61
2022/07/04 08:32:58;;;;;;;10.25;2.38;;;19.30;99.90;;;;;;4991732;28;20782;-62
2022/07/04 08:35:24;;;;;;;4.30;1.05;;;19.30;99.90;;;;;;4992588;28;20045;-61
2022/07/04 08:37:55;;;;;;;2.85;0.80;;;19.30;99.90;;;;;;4992662;28;20042;-62
2022/07/04 08:40:26;;;;;;;3.33;1.17;;;19.20;99.90;;;;;;5005663;28;20088;-62
2022/07/04 08:42:52;;;;;;;3.53;0.90;;;19.20;99.90;;;;;;4988168;28;20045;-61
2022/07/04 08:45:30;;;;;;;3.33;1.05;;;19.00;99.90;;;;;;4986788;28;20100;-63
2022/07/04 08:48:07;;;;;;;2.63;0.93;;;19.10;99.90;;;;;;4986721;28;20050;-63
2022/07/04 08:50:43;;;;;;;2.25;1.23;;;19.10;99.90;;;;;;4989777;28;20112;-63
2022/07/04 08:53:14;;;;;;;3.45;1.67;;;19.30;99.90;;;;;;4991272;28;20115;-61
2022/07/04 08:58:25;;;;;;;;;;;19.50;99.90;;;;;;4996981;28;20041;-62
2022/07/04 09:00:56;;;;;;;3.97;0.80;;;19.50;99.90;;;;;;5002479;28;19925;-63
2022/07/04 09:03:22;;;;;;;2.85;0.90;;;20.90;99.90;;;;;;4982228;28;20157;-64
2022/07/04 09:05:48;;;;;;;2.92;0.95;;;19.70;99.90;;;;;;4999778;28;20058;-62
2022/07/04 09:08:14;;;;;;;3.17;0.95;;;19.70;99.90;;;;;;5001783;28;20685;-64
2022/07/04 09:10:39;;;;;;;2.05;0.85;;;19.70;99.90;;;;;;5001823;28;20041;-63
2022/07/04 09:13:07;;;;;;;2.70;1.17;;;19.90;99.90;;;;;;5002047;28;20042;-61
2022/07/04 09:15:33;;;;;;;5.68;1.05;;;19.90;99.90;;;;;;5002134;28;20072;-63
2022/07/04 09:18:00;;;;;;;6.53;0.90;;;19.80;99.90;;;;;;4999919;28;20570;-62
2022/07/04 09:20:27;;;;;;;6.72;1.20;;;20.20;99.90;;;;;;5003708;28;20092;-63
2022/07/04 09:22:53;;;;;;;4.05;0.95;;;20.30;99.90;;;;;;4997273;28;20042;-64
2022/07/04 09:25:21;;;;;;;3.88;1.10;;;20.20;99.90;;;;;;4999506;28;20168;-62
2022/07/04 09:27:49;;;;;;;7.03;1.83;;;20.70;99.90;;;;;;5001174;28;20049;-62
2022/07/04 09:30:21;;;;;;;2.70;0.73;;;20.20;99.90;;;;;;5002233;28;20393;-62
2022/07/04 09:32:50;;;;;;;4.35;0.90;;;20.30;99.90;;;;;;4998904;28;20064;-64
2022/07/04 09:35:23;;;;;;;2.35;1.00;;;20.60;99.90;;;;;;5004579;28;20060;-62
2022/07/04 09:37:51;;;;;;;6.95;1.48;;;20.00;99.90;;;;;;5004711;28;20042;-61
2022/07/04 09:43:21;;;;;;;5.03;1.00;;;20.00;99.90;;;;;;5000418;28;20061;-63
2022/07/04 09:45:58;;;;;;;6.28;1.85;;;20.10;99.90;;;;;;5002733;28;20042;-64
2022/07/04 09:48:24;;;;;;;5.47;1.45;;;19.70;99.90;;;;;;5000798;28;20054;-63
2022/07/04 09:50:50;;;;;;;4.97;1.63;;;20.10;99.90;;;;;;5001798;28;20101;-64
2022/07/04 09:53:16;;;;;;;5.07;2.20;;;20.40;99.90;;;;;;5004375;28;20129;-62
2022/07/04 09:55:41;;;;;;;5.68;1.70;;;21.80;99.90;;;;;;5002902;28;20042;-65
2022/07/04 09:58:09;;;;;;;4.47;1.55;;;21.60;99.90;;;;;;5003635;28;20061;-61
2022/07/04 10:00:36;;;;;;;5.93;3.00;;;20.30;99.90;;;;;;5002371;28;20048;-63
2022/07/04 10:03:25;;;;;;;4.97;1.35;;;20.40;99.90;;;;;;4999924;28;20054;-63
2022/07/04 10:06:09;;;;;;;4.47;2.03;;;20.60;99.90;;;;;;5001257;28;20053;-62
2022/07/04 10:08:35;;;;;;;5.78;1.83;;;21.40;99.90;;;;;;4999179;28;20050;-63
2022/07/04 10:11:03;;;;;;;3.88;1.10;;;20.60;99.90;;;;;;4999080;28;21226;-64
2022/07/04 10:13:28;;;;;;;2.92;0.80;;;20.40;99.90;;;;;;5001702;28;20053;-63
2022/07/04 10:15:54;;;;;;;4.07;0.80;;;20.60;99.90;;;;;;5000471;28;20040;-63
2022/07/04 10:18:21;;;;;;;3.63;0.82;;;20.50;99.90;;;;;;4998652;28;20120;-64
2022/07/04 10:20:51;;;;;;;2.35;1.30;;;20.50;99.90;;;;;;4997483;28;20066;-63
2022/07/04 10:23:18;;;;;;;4.75;1.33;;;20.80;99.90;;;;;;5000502;28;20045;-62
2022/07/04 10:25:49;;;;;;;5.20;1.00;;;20.60;99.90;;;;;;5001876;28;20556;-64
2022/07/04 10:28:16;;;;;;;2.00;1.02;;;20.30;99.90;;;;;;5000501;28;20046;-62
2022/07/04 10:30:42;;;;;;;3.17;0.80;;;20.50;99.90;;;;;;4999884;28;20546;-64
2022/07/04 10:33:10;;;;;;;4.00;1.08;;;20.80;99.90;;;;;;5002179;28;20049;-62
2022/07/04 10:35:50;;;;;;;2.05;0.93;;;20.40;99.90;;;;;;5002821;28;20041;-64
2022/07/04 10:38:21;;;;;;;2.50;0.77;;;20.70;99.90;;;;;;5004518;28;20068;-64
2022/07/04 10:40:50;;;;;;;2.28;0.70;;;22.80;99.90;;;;;;4998019;28;21133;-64
2022/07/04 10:43:31;;;;;;;6.88;0.80;;;20.80;99.90;;;;;;4999800;28;20050;-62
2022/07/04 10:46:30;;;;;;;4.57;0.60;;;20.80;99.90;;;;;;5013620;28;20061;-63
2022/07/04 10:49:02;;;;;;;3.17;0.60;;;21.30;99.90;;;;;;4995610;28;20064;-64
2022/07/04 10:51:41;;;;;;;1.33;0.77;;;21.10;99.90;;;;;;4978307;28;20153;-64
2022/07/04 10:54:09;;;;;;;2.50;0.50;;;21.30;99.90;;;;;;4995373;28;20057;-62
2022/07/04 10:56:48;;;;;;;4.43;0.73;;;21.20;99.90;;;;;;4995062;28;20052;-65
2022/07/04 10:59:22;;;;;;;2.15;0.50;;;21.30;99.90;;;;;;4994439;28;20798;-65
2022/07/04 11:01:50;;;;;;;3.08;0.60;;;21.20;99.90;;;;;;4991106;28;20037;-64
2022/07/04 11:04:54;;;;;;;4.93;0.75;;;21.50;99.90;;;;;;4992597;28;20133;-65
2022/07/04 11:07:40;;;;;;;1.95;0.70;;;21.50;99.90;;;;;;5009216;28;20656;-64
2022/07/04 11:12:59;;;;;;;1.85;0.73;;;21.60;99.90;;;;;;4992452;28;20081;-64
2022/07/04 11:15:24;;;;;;;2.03;0.50;;;21.90;99.90;;;;;;4994335;28;20054;-64
2022/07/04 11:17:51;;;;;;;2.63;0.75;;;21.80;99.90;;;;;;4990902;28;20046;-64
2022/07/04 11:20:18;;;;;;;2.80;0.57;;;21.60;99.90;;;;;;4992207;28;20073;-64
2022/07/04 11:22:43;;;;;;;5.60;0.50;;;21.80;99.90;;;;;;4994027;28;20033;-64
2022/07/04 11:25:11;;;;;;;3.20;0.57;;;21.80;99.90;;;;;;4992523;28;20092;-64
2022/07/04 11:27:40;;;;;;;2.53;0.60;;;22.00;99.90;;;;;;4993087;28;20159;-64
2022/07/04 11:30:07;;;;;;;3.10;0.73;;;22.10;99.90;;;;;;4990432;28;20092;-64
2022/07/04 11:32:34;;;;;;;2.97;0.70;;;21.80;99.90;;;;;;4989579;28;20054;-64
2022/07/04 11:35:03;;;;;;;4.32;1.15;;;22.20;99.90;;;;;;4989128;28;20069;-64
2022/07/04 11:37:28;;;;;;;0.63;0.35;;;22.00;99.90;;;;;;4991538;28;20037;-64
2022/07/04 11:45:24;;;;;;;2.05;0.70;;;21.90;99.90;;;;;;4990002;28;20046;-64
2022/07/04 11:47:50;;;;;;;5.30;0.70;;;21.80;99.90;;;;;;4991188;28;20046;-64
2022/07/04 11:50:18;;;;;;;3.08;0.65;;;21.60;99.90;;;;;;4989419;28;20146;-64
2022/07/04 11:52:53;;;;;;;3.83;0.68;;;22.00;99.90;;;;;;4989123;28;20065;-64
2022/07/04 11:55:21;;;;;;;2.80;0.60;;;22.00;99.90;;;;;;4995526;28;20046;-64
2022/07/04 11:57:52;;;;;;;2.33;0.60;;;21.60;99.90;;;;;;4999582;28;20108;-65
2022/07/04 12:00:21;;;;;;;2.65;0.57;;;21.70;99.90;;;;;;4999549;28;20533;-65
2022/07/04 12:02:48;;;;;;;4.88;0.80;;;24.10;99.90;;;;;;4996451;28;20042;-64
2022/07/04 12:05:15;;;;;;;3.03;0.60;;;21.80;99.90;;;;;;4989626;28;20131;-65
2022/07/04 12:07:46;;;;;;;4.93;0.70;;;21.60;99.90;;;;;;4990432;28;20041;-64
2022/07/04 12:10:23;;;;;;;7.90;0.82;;;21.70;99.90;;;;;;4987681;28;20116;-64
2022/07/04 12:12:54;;;;;;;1.67;0.52;;;21.80;99.90;;;;;;4989126;28;20046;-64
2022/07/04 12:15:20;;;;;;;4.60;0.50;;;21.80;99.90;;;;;;4991060;28;20045;-64
2022/07/04 12:17:50;;;;;;;2.25;0.40;;;21.80;99.90;;;;;;4993781;28;20056;-64
2022/07/04 12:20:17;;;;;;;5.93;1.10;;;22.00;99.90;;;;;;4992111;28;20088;-64
2022/07/04 12:22:50;;;;;;;4.28;0.68;;;21.80;99.90;;;;;;4991741;28;20053;-64
2022/07/04 12:25:38;;;;;;;1.33;0.32;;;22.10;99.90;;;;;;4984459;28;20065;-64
2022/07/04 12:28:03;;;;;;;3.97;0.82;;;22.20;99.90;;;;;;4981308;28;20045;-64
2022/07/04 12:30:34;;;;;;;3.85;0.40;;;22.10;99.90;;;;;;4986950;28;20060;-64
2022/07/04 12:33:02;;;;;;;1.30;0.40;;;22.10;99.90;;;;;;4986429;28;20080;-65
2022/07/04 12:35:34;;;;;;;3.22;0.40;;;21.80;99.90;;;;;;4987475;28;20463;-65
2022/07/04 12:38:23;;;;;;;2.30;0.30;;;21.60;99.90;;;;;;4988624;28;20038;-65
2022/07/04 12:40:59;;;;;;;3.65;0.50;;;21.60;99.90;;;;;;4989552;28;20137;-64
2022/07/04 12:43:46;;;;;;;0.90;0.40;;;21.40;99.90;;;;;;4991573;28;20161;-64
2022/07/04 12:46:24;;;;;;;2.83;0.47;;;21.60;99.90;;;;;;4991726;28;20069;-65
2022/07/04 12:48:50;;;;;;;1.92;0.30;;;21.40;99.90;;;;;;4988675;28;20108;-64
2022/07/04 12:51:20;;;;;;;0.90;0.30;;;21.40;99.90;;;;;;4989443;28;20042;-64
2022/07/04 12:53:47;;;;;;;5.30;1.55;;;21.50;99.90;;;;;;4987517;28;20053;-64
2022/07/04 12:56:36;;;;;;;4.50;0.52;;;21.60;99.90;;;;;;4988226;28;20294;-62
2022/07/04 12:59:07;;;;;;;3.45;0.60;;;21.30;99.90;;;;;;4981325;28;20045;-63
2022/07/04 13:01:33;;;;;;;1.55;0.43;;;21.40;99.90;;;;;;4977676;28;20029;-63
2022/07/04 13:04:00;;;;;;;1.55;0.40;;;21.60;99.90;;;;;;4982102;28;20041;-62
2022/07/04 13:06:26;;;;;;;0.98;0.20;;;21.60;99.90;;;;;;4982670;28;20084;-61
2022/07/04 13:08:52;;;;;;;2.17;0.40;;;21.60;99.90;;;;;;4980517;28;20096;-61
2022/07/04 13:14:03;;;;;;;;;;;21.50;99.90;;;;;;4982667;28;20050;-63
2022/07/04 13:16:29;;;;;;;1.70;0.77;;;21.40;99.90;;;;;;4986076;28;19944;-63
2022/07/04 13:18:54;;;;;;;2.60;0.40;;;21.20;99.90;;;;;;4989254;28;20052;-63